Time;durP1;ratioP1;P1;durP2;ratioP2;P2;SDS_P1;SDS_P2;PMS_P1;PMS_P2;Temp;Humidity;BMP_temperature;BMP_pressure;BME280_temperature;BME280_humidity;BME280_pressure;Samples;Min_cycle;Max_cycle;Signal;HPM_P1;HPM_P2
2022/07/16 00:02:12;;;;;;;;;;;;;;;25.46;27.30;99348.41;4376637;32;33788;-85
2022/07/16 00:04:40;;;;;;;;;;;;;;;25.61;27.29;99344.19;4362703;32;35250;-85
2022/07/16 00:07:07;;;;;;;;;;;;;;;24.85;28.29;99347.53;4363130;32;33834;-85
2022/07/16 00:09:35;;;;;;;;;;;;;;;24.95;28.38;99339.13;4363143;32;32936;-85
2022/07/16 00:12:02;;;;;;;;;;;;;;;25.63;27.47;99342.31;4363066;32;34278;-85
2022/07/16 00:14:29;;;;;;;;;;;;;;;25.02;28.02;99333.56;4362724;32;33790;-85
2022/07/16 00:16:57;;;;;;;;;;;;;;;24.93;28.14;99340.16;4376153;32;34801;-85
2022/07/16 00:19:24;;;;;;;;;;;;;;;24.69;28.62;99332.28;4376114;32;33353;-85
2022/07/16 00:21:52;;;;;;;;;;;;;;;25.28;27.72;99330.66;4376947;32;33912;-85
2022/07/16 00:24:19;;;;;;;;;;;;;;;25.13;27.81;99332.19;4362360;32;34052;-85
2022/07/16 00:26:47;;;;;;;;;;;;;;;25.23;27.75;99340.63;4362721;32;35135;-85
2022/07/16 00:29:15;;;;;;;;;;;;;;;24.92;27.98;99333.94;4362456;32;33317;-86
2022/07/16 00:31:43;;;;;;;;;;;;;;;25.19;27.74;99334.59;4376043;32;34373;-85
2022/07/16 00:34:11;;;;;;;;;;;;;;;24.99;28.10;99329.25;4387991;32;34021;-85
2022/07/16 00:36:38;;;;;;;;;;;;;;;25.00;28.07;99341.56;4376932;32;34373;-85
2022/07/16 00:39:06;;;;;;;;;;;;;;;25.29;27.63;99331.53;4362452;32;33940;-87
2022/07/16 00:41:34;;;;;;;;;;;;;;;25.42;27.39;99341.53;4363037;32;34949;-85
2022/07/16 00:44:03;;;;;;;;;;;;;;;25.19;27.86;99334.59;4362776;32;34302;-86
2022/07/16 00:46:30;;;;;;;;;;;;;;;25.10;27.81;99336.78;4375900;32;34599;-85
2022/07/16 00:48:58;;;;;;;;;;;;;;;25.75;26.92;99340.03;4375332;32;33045;-85
2022/07/16 00:51:25;;;;;;;;;;;;;;;25.48;27.40;99341.22;4362642;32;34300;-85
2022/07/16 00:53:53;;;;;;;;;;;;;;;25.07;27.73;99347.47;4362390;32;34403;-85
2022/07/16 00:56:20;;;;;;;;;;;;;;;25.51;27.27;99336.72;4362344;32;35129;-86
2022/07/16 00:58:48;;;;;;;;;;;;;;;25.84;26.63;99340.50;4361957;32;34133;-84
2022/07/16 01:01:15;;;;;;;;;;;;;;;26.13;26.37;99339.09;4357723;32;33032;-86
2022/07/16 01:03:43;;;;;;;;;;;;;;;25.92;26.69;99340.16;4373063;32;35152;-86
2022/07/16 01:06:11;;;;;;;;;;;;;;;25.74;26.91;99344.47;4376067;32;34186;-85
2022/07/16 01:08:40;;;;;;;;;;;;;;;25.34;27.39;99343.63;4376218;32;33551;-87
2022/07/16 01:11:08;;;;;;;;;;;;;;;25.54;27.22;99336.59;4375777;32;34801;-85
2022/07/16 01:13:36;;;;;;;;;;;;;;;25.88;27.02;99342.09;4361921;32;34135;-84
2022/07/16 01:16:03;;;;;;;;;;;;;;;25.18;27.65;99339.94;4362407;32;34623;-85
2022/07/16 01:18:31;;;;;;;;;;;;;;;25.52;27.11;99341.94;4375639;32;33276;-85
2022/07/16 01:20:58;;;;;;;;;;;;;;;25.80;26.90;99340.69;4361695;32;33948;-85
2022/07/16 01:23:25;;;;;;;;;;;;;;;25.37;27.34;99345.28;4376263;32;33424;-85
2022/07/16 01:25:55;;;;;;;;;;;;;;;25.11;27.91;99335.84;4350196;32;33161;-85
2022/07/16 01:28:22;;;;;;;;;;;;;;;25.63;27.03;99341.47;4375970;32;32755;-85
2022/07/16 01:30:50;;;;;;;;;;;;;;;25.71;27.04;99334.00;4349914;32;34297;-86
2022/07/16 01:33:21;;;;;;;;;;;;;;;25.88;26.74;99343.88;4364048;32;35112;-86
2022/07/16 01:35:49;;;;;;;;;;;;;;;25.57;27.27;99350.59;4361904;32;35066;-85
2022/07/16 01:38:16;;;;;;;;;;;;;;;25.58;27.17;99344.34;4360650;32;32385;-85
2022/07/16 01:40:44;;;;;;;;;;;;;;;25.97;26.74;99343.44;4354100;32;34387;-86
2022/07/16 01:43:15;;;;;;;;;;;;;;;25.44;27.36;99341.44;4375948;32;34083;-86
2022/07/16 01:45:42;;;;;;;;;;;;;;;25.66;26.92;99336.88;4361794;32;33911;-85
2022/07/16 01:48:10;;;;;;;;;;;;;;;25.96;26.56;99339.06;4349463;32;32147;-85
2022/07/16 01:50:39;;;;;;;;;;;;;;;26.36;26.00;99337.97;4349579;32;33014;-85
2022/07/16 01:53:07;;;;;;;;;;;;;;;25.28;27.49;99340.41;4356437;32;34910;-85
2022/07/16 01:55:34;;;;;;;;;;;;;;;25.56;27.13;99350.63;4375388;32;34828;-85
2022/07/16 01:58:02;;;;;;;;;;;;;;;26.06;26.30;99350.94;4375981;32;33453;-85
2022/07/16 02:00:30;;;;;;;;;;;;;;;26.49;26.08;99354.22;4361623;32;33750;-85
2022/07/16 02:02:57;;;;;;;;;;;;;;;26.46;26.20;99349.06;4354692;32;34836;-86
2022/07/16 02:05:25;;;;;;;;;;;;;;;26.60;25.73;99345.72;4375301;32;33951;-85
2022/07/16 02:07:52;;;;;;;;;;;;;;;26.72;25.92;99346.91;4362155;32;33371;-86
2022/07/16 02:10:19;;;;;;;;;;;;;;;26.95;25.56;99346.59;4361631;32;33264;-85
2022/07/16 02:12:47;;;;;;;;;;;;;;;27.06;25.49;99344.22;4375673;32;34403;-85
2022/07/16 02:15:16;;;;;;;;;;;;;;;27.06;25.44;99343.38;4355325;32;32780;-85
2022/07/16 02:17:44;;;;;;;;;;;;;;;26.86;25.67;99342.59;4361222;32;33416;-85
2022/07/16 02:20:12;;;;;;;;;;;;;;;26.87;25.67;99348.78;4346933;32;33638;-85
2022/07/16 02:22:39;;;;;;;;;;;;;;;26.76;25.86;99345.81;4344296;32;33025;-85
2022/07/16 02:25:07;;;;;;;;;;;;;;;26.87;25.66;99340.81;4374385;32;33714;-85
2022/07/16 02:27:34;;;;;;;;;;;;;;;26.57;26.14;99344.06;4361271;32;33060;-87
2022/07/16 02:30:02;;;;;;;;;;;;;;;26.53;26.20;99345.16;4372878;32;34039;-85
2022/07/16 02:32:29;;;;;;;;;;;;;;;26.65;26.11;99347.19;4388509;32;33866;-85
2022/07/16 02:34:57;;;;;;;;;;;;;;;26.49;26.17;99345.41;4375366;32;34844;-85
2022/07/16 02:37:24;;;;;;;;;;;;;;;26.05;26.67;99338.59;4375226;32;34154;-85
2022/07/16 02:39:51;;;;;;;;;;;;;;;26.24;26.43;99340.38;4375323;32;34068;-85
2022/07/16 02:42:19;;;;;;;;;;;;;;;26.11;26.78;99348.09;4374860;32;34036;-85
2022/07/16 02:44:46;;;;;;;;;;;;;;;26.38;26.51;99343.22;4374853;32;35026;-85
2022/07/16 02:47:13;;;;;;;;;;;;;;;26.12;26.78;99344.50;4374904;32;33242;-85
2022/07/16 02:49:41;;;;;;;;;;;;;;;26.00;26.93;99351.25;4374843;32;33907;-85
2022/07/16 02:52:08;;;;;;;;;;;;;;;25.97;27.00;99351.41;4349920;32;34376;-85
2022/07/16 02:54:36;;;;;;;;;;;;;;;26.03;27.04;99353.78;4347780;32;34227;-85
2022/07/16 02:57:03;;;;;;;;;;;;;;;25.73;27.47;99351.59;4371659;32;34161;-85
2022/07/16 02:59:31;;;;;;;;;;;;;;;25.85;27.23;99352.84;4350607;32;32583;-85
2022/07/16 03:01:58;;;;;;;;;;;;;;;25.67;27.48;99351.88;4362894;32;34216;-85
2022/07/16 03:04:25;;;;;;;;;;;;;;;25.73;27.41;99348.94;4376836;32;33357;-85
2022/07/16 03:06:53;;;;;;;;;;;;;;;25.71;27.45;99358.75;4364750;32;33843;-85
2022/07/16 03:09:20;;;;;;;;;;;;;;;25.68;27.52;99353.59;4363063;32;34976;-86
2022/07/16 03:11:47;;;;;;;;;;;;;;;25.72;27.35;99355.19;4376637;32;34449;-85
2022/07/16 03:14:14;;;;;;;;;;;;;;;25.64;27.56;99359.09;4376531;32;34169;-85
2022/07/16 03:16:42;;;;;;;;;;;;;;;25.68;27.39;99361.56;4362140;32;32439;-85
2022/07/16 03:19:09;;;;;;;;;;;;;;;25.60;27.59;99358.38;4376712;32;34282;-85
2022/07/16 03:21:36;;;;;;;;;;;;;;;25.50;27.91;99364.22;4376194;32;34161;-85
2022/07/16 03:24:04;;;;;;;;;;;;;;;25.42;27.90;99353.91;4376099;32;34815;-85
2022/07/16 03:26:32;;;;;;;;;;;;;;;25.42;27.83;99359.22;4376921;32;33450;-85
2022/07/16 03:28:59;;;;;;;;;;;;;;;25.68;27.54;99361.56;4358707;32;32806;-85
2022/07/16 03:31:26;;;;;;;;;;;;;;;25.54;27.66;99371.09;4362223;32;35281;-85
2022/07/16 03:33:54;;;;;;;;;;;;;;;25.60;27.56;99370.81;4376838;32;35093;-85
2022/07/16 03:36:22;;;;;;;;;;;;;;;25.51;27.65;99374.75;4362840;32;33775;-85
2022/07/16 03:39:05;;;;;;;;;;;;;;;25.59;27.51;99377.91;4370575;32;33913;-85
2022/07/16 03:41:33;;;;;;;;;;;;;;;25.39;27.80;99370.00;4363249;32;34403;-85
2022/07/16 03:44:00;;;;;;;;;;;;;;;25.58;27.58;99380.66;4355345;32;34842;-85
2022/07/16 03:46:28;;;;;;;;;;;;;;;25.60;27.67;99373.44;4376757;32;33314;-85
2022/07/16 03:48:56;;;;;;;;;;;;;;;25.32;28.21;99377.34;4362747;32;35160;-85
2022/07/16 03:51:24;;;;;;;;;;;;;;;25.22;28.14;99373.38;4361858;32;35063;-85
2022/07/16 03:53:51;;;;;;;;;;;;;;;25.32;28.20;99373.84;4362317;32;34460;-86
2022/07/16 03:56:19;;;;;;;;;;;;;;;25.44;28.08;99378.59;4376528;32;33318;-85
2022/07/16 03:58:46;;;;;;;;;;;;;;;25.75;27.83;99378.06;4376083;32;33913;-87
2022/07/16 04:01:13;;;;;;;;;;;;;;;25.69;27.88;99389.84;4376243;32;34005;-84
2022/07/16 04:03:41;;;;;;;;;;;;;;;25.82;27.92;99381.34;4375734;32;34970;-85
2022/07/16 04:06:08;;;;;;;;;;;;;;;26.21;27.64;99378.59;4376330;32;34482;-85
2022/07/16 04:08:35;;;;;;;;;;;;;;;26.37;27.42;99378.72;4362521;32;35107;-85
2022/07/16 04:11:03;;;;;;;;;;;;;;;26.59;27.33;99373.22;4376329;32;34160;-85
2022/07/16 04:13:31;;;;;;;;;;;;;;;26.77;27.20;99374.97;4363065;32;33946;-88
2022/07/16 04:15:58;;;;;;;;;;;;;;;27.00;26.74;99381.78;4376764;32;34233;-85
2022/07/16 04:18:25;;;;;;;;;;;;;;;27.00;26.65;99376.47;4376607;32;33991;-84
2022/07/16 04:20:53;;;;;;;;;;;;;;;26.52;26.76;99378.03;4375778;32;33900;-85
2022/07/16 04:23:20;;;;;;;;;;;;;;;25.82;27.59;99386.66;4377064;32;34271;-85
2022/07/16 04:25:47;;;;;;;;;;;;;;;25.28;28.46;99385.53;4377167;32;33229;-85
2022/07/16 04:28:15;;;;;;;;;;;;;;;25.73;27.78;99386.13;4376561;32;35094;-85
2022/07/16 04:30:42;;;;;;;;;;;;;;;26.46;26.50;99385.44;4362611;32;34934;-85
2022/07/16 04:33:09;;;;;;;;;;;;;;;25.87;28.21;99387.28;4376541;32;34174;-89
2022/07/16 04:35:37;;;;;;;;;;;;;;;25.19;29.18;99381.47;4376365;32;33228;-84
2022/07/16 04:38:04;;;;;;;;;;;;;;;24.83;29.25;99389.19;4363259;32;34440;-85
2022/07/16 04:40:31;;;;;;;;;;;;;;;25.08;29.63;99387.22;4363245;32;35140;-85
2022/07/16 04:42:58;;;;;;;;;;;;;;;25.18;28.99;99390.34;4377062;32;34256;-86
2022/07/16 04:45:26;;;;;;;;;;;;;;;25.19;28.96;99379.69;4377312;32;33971;-85
2022/07/16 04:47:53;;;;;;;;;;;;;;;26.57;27.78;99375.13;4363027;32;34080;-85
2022/07/16 04:50:20;;;;;;;;;;;;;;;25.91;28.37;99378.25;4376521;32;34367;-86
2022/07/16 04:52:53;;;;;;;;;;;;;;;26.09;28.50;99380.03;4363360;32;32886;-85
2022/07/16 04:55:21;;;;;;;;;;;;;;;25.86;28.23;99374.94;4376968;32;33486;-86
2022/07/16 04:57:48;;;;;;;;;;;;;;;27.47;26.04;99377.63;4362475;32;34959;-86
2022/07/16 05:00:20;;;;;;;;;;;;;;;27.96;25.49;99383.87;4358137;32;34605;-87
2022/07/16 05:02:56;;;;;;;;;;;;;;;28.44;24.68;99381.19;4376894;32;35049;-86
2022/07/16 05:05:35;;;;;;;;;;;;;;;27.48;25.51;99374.03;4376823;32;34112;-83
2022/07/16 05:08:02;;;;;;;;;;;;;;;27.74;25.47;99381.50;4341743;32;33529;-83
2022/07/16 05:10:30;;;;;;;;;;;;;;;27.11;26.87;99386.59;4366679;32;34928;-85
2022/07/16 05:12:57;;;;;;;;;;;;;;;27.83;25.68;99388.97;4362906;32;34142;-85
2022/07/16 05:15:25;;;;;;;;;;;;;;;27.32;25.75;99388.16;4363488;32;33962;-85
2022/07/16 05:17:52;;;;;;;;;;;;;;;28.12;25.32;99392.72;4362747;32;34309;-85
2022/07/16 05:20:20;;;;;;;;;;;;;;;27.25;25.55;99386.75;4376922;32;34265;-84
2022/07/16 05:22:47;;;;;;;;;;;;;;;27.07;26.15;99385.00;4376041;32;34392;-83
2022/07/16 05:25:15;;;;;;;;;;;;;;;26.16;27.10;99388.59;4356618;32;33203;-86
2022/07/16 05:27:43;;;;;;;;;;;;;;;27.12;25.75;99389.19;4376752;32;34039;-85
2022/07/16 05:30:10;;;;;;;;;;;;;;;26.75;26.00;99390.16;4363011;32;35094;-86
2022/07/16 05:32:40;;;;;;;;;;;;;;;26.79;26.20;99396.19;4375634;32;33703;-88
2022/07/16 05:35:08;;;;;;;;;;;;;;;26.36;26.55;99395.59;4362653;32;32977;-85
2022/07/16 05:37:35;;;;;;;;;;;;;;;25.84;27.42;99392.78;4375823;32;33980;-85
2022/07/16 05:40:03;;;;;;;;;;;;;;;26.09;27.41;99397.78;4376542;32;35479;-86
2022/07/16 05:42:31;;;;;;;;;;;;;;;26.71;26.47;99396.59;4361975;32;34147;-85
2022/07/16 05:44:58;;;;;;;;;;;;;;;27.14;25.84;99405.94;4362756;32;33362;-85
2022/07/16 05:47:26;;;;;;;;;;;;;;;27.76;25.17;99408.06;4375620;32;34737;-87
2022/07/16 05:49:53;;;;;;;;;;;;;;;27.61;25.28;99394.56;4361437;32;34726;-85
2022/07/16 05:52:21;;;;;;;;;;;;;;;27.93;25.10;99405.34;4375996;32;34054;-85
2022/07/16 05:54:48;;;;;;;;;;;;;;;27.19;25.61;99400.38;4375725;32;33404;-86
2022/07/16 05:57:15;;;;;;;;;;;;;;;27.30;26.22;99403.31;4356236;32;33157;-84
2022/07/16 05:59:42;;;;;;;;;;;;;;;26.53;26.81;99405.47;4375688;32;33947;-94
2022/07/16 06:02:10;;;;;;;;;;;;;;;26.96;26.26;99406.84;4376014;32;33936;-85
2022/07/16 06:04:38;;;;;;;;;;;;;;;27.22;26.48;99402.03;4376056;32;33446;-85
2022/07/16 06:07:05;;;;;;;;;;;;;;;27.46;26.21;99400.72;4375641;32;34413;-84
2022/07/16 06:09:32;;;;;;;;;;;;;;;27.44;26.18;99407.94;4375206;32;35398;-85
2022/07/16 06:12:00;;;;;;;;;;;;;;;27.73;25.83;99409.06;4375664;32;33946;-85
2022/07/16 06:14:27;;;;;;;;;;;;;;;27.26;26.34;99409.75;4375561;32;33764;-84
2022/07/16 06:16:54;;;;;;;;;;;;;;;27.89;25.56;99411.78;4375497;32;34082;-85
2022/07/16 06:19:22;;;;;;;;;;;;;;;27.39;26.48;99415.31;4375519;32;34484;-86
2022/07/16 06:21:49;;;;;;;;;;;;;;;27.68;26.34;99415.56;4375420;32;34928;-85
2022/07/16 06:24:16;;;;;;;;;;;;;;;28.22;24.97;99422.37;4362000;32;32854;-85
2022/07/16 06:26:46;;;;;;;;;;;;;;;27.97;25.17;99416.69;4375812;32;35066;-84
2022/07/16 06:29:14;;;;;;;;;;;;;;;28.67;24.63;99425.22;4377130;32;35230;-84
2022/07/16 06:31:42;;;;;;;;;;;;;;;28.29;24.75;99428.22;4377532;32;34250;-84
2022/07/16 06:34:10;;;;;;;;;;;;;;;28.21;24.68;99430.47;4377140;32;33219;-85
2022/07/16 06:36:37;;;;;;;;;;;;;;;27.84;25.41;99425.38;4376862;32;33872;-85
2022/07/16 06:39:04;;;;;;;;;;;;;;;27.85;25.06;99423.56;4377215;32;34220;-85
2022/07/16 06:41:32;;;;;;;;;;;;;;;27.54;26.08;99425.16;4363668;32;34340;-85
2022/07/16 06:43:59;;;;;;;;;;;;;;;27.73;25.37;99426.81;4377174;32;33904;-87
2022/07/16 06:46:26;;;;;;;;;;;;;;;27.79;25.36;99430.06;4380271;32;35618;-89
2022/07/16 06:48:54;;;;;;;;;;;;;;;27.95;25.10;99423.91;4392210;32;35079;-84
2022/07/16 06:51:21;;;;;;;;;;;;;;;28.70;24.94;99430.37;4391949;32;33798;-85
2022/07/16 06:53:48;;;;;;;;;;;;;;;27.65;25.57;99427.22;4390896;32;33070;-93
2022/07/16 06:56:16;;;;;;;;;;;;;;;29.01;24.42;99422.34;4377831;32;34003;-86
2022/07/16 06:58:43;;;;;;;;;;;;;;;28.96;24.16;99423.53;4378000;32;34590;-84
2022/07/16 07:01:10;;;;;;;;;;;;;;;28.92;23.89;99422.84;4377252;32;35205;-93
2022/07/16 07:03:39;;;;;;;;;;;;;;;28.39;24.63;99428.63;4365147;32;33484;-91
2022/07/16 07:06:06;;;;;;;;;;;;;;;27.77;25.28;99425.75;4360211;32;35261;-85
2022/07/16 07:08:34;;;;;;;;;;;;;;;28.72;24.94;99433.84;4392158;32;34262;-84
2022/07/16 07:11:01;;;;;;;;;;;;;;;28.51;24.27;99427.91;4367670;32;34504;-94
2022/07/16 07:13:30;;;;;;;;;;;;;;;29.14;23.82;99422.50;4361040;32;32674;-84
2022/07/16 07:15:58;;;;;;;;;;;;;;;28.64;23.80;99422.72;4370447;32;34487;-89
2022/07/16 07:18:26;;;;;;;;;;;;;;;28.94;23.96;99423.59;4366462;32;35127;-85
2022/07/16 07:20:56;;;;;;;;;;;;;;;28.94;24.03;99418.28;4363716;32;33289;-91
2022/07/16 07:23:23;;;;;;;;;;;;;;;27.76;25.08;99421.37;4376410;32;34220;-90
2022/07/16 07:25:50;;;;;;;;;;;;;;;28.43;24.37;99430.16;4377410;32;33956;-86
2022/07/16 07:28:18;;;;;;;;;;;;;;;28.69;24.11;99428.69;4381091;32;33734;-84
2022/07/16 07:30:45;;;;;;;;;;;;;;;28.86;23.96;99426.72;4378603;32;34182;-93
2022/07/16 07:33:13;;;;;;;;;;;;;;;29.13;24.07;99417.22;4377113;32;34399;-86
2022/07/16 07:35:41;;;;;;;;;;;;;;;28.94;23.40;99415.59;4381480;32;33739;-91
2022/07/16 07:38:08;;;;;;;;;;;;;;;29.16;23.50;99411.72;4375819;32;35180;-90
2022/07/16 07:40:36;;;;;;;;;;;;;;;29.38;24.35;99416.63;4389835;32;33903;-92
2022/07/16 07:43:04;;;;;;;;;;;;;;;28.77;24.84;99423.75;4382425;32;34253;-95
2022/07/16 07:45:31;;;;;;;;;;;;;;;29.69;23.08;99420.97;4374589;32;34184;-96
2022/07/16 07:47:59;;;;;;;;;;;;;;;28.81;23.90;99427.97;4366966;32;34266;-92
2022/07/16 07:50:26;;;;;;;;;;;;;;;29.27;23.80;99422.59;4385089;32;34396;-93
2022/07/16 07:52:53;;;;;;;;;;;;;;;29.70;22.10;99420.00;4395025;32;32794;-96
2022/07/16 07:55:21;;;;;;;;;;;;;;;29.23;22.64;99418.41;4398705;32;35177;-89
2022/07/16 07:57:53;;;;;;;;;;;;;;;29.13;22.41;99417.22;4395452;32;33726;-86
2022/07/16 08:00:20;;;;;;;;;;;;;;;29.11;22.39;99417.31;4378640;32;34322;-87
2022/07/16 08:02:48;;;;;;;;;;;;;;;29.23;23.25;99411.25;4380320;32;33401;-83
2022/07/16 08:05:15;;;;;;;;;;;;;;;28.46;22.70;99419.31;4375707;32;33765;-84
2022/07/16 08:07:42;;;;;;;;;;;;;;;29.78;21.26;99407.06;4381295;32;34103;-83
2022/07/16 08:10:10;;;;;;;;;;;;;;;28.73;21.76;99415.06;4392042;32;34311;-86
2022/07/16 08:12:37;;;;;;;;;;;;;;;27.99;22.36;99415.66;4392437;32;33159;-93
2022/07/16 08:15:05;;;;;;;;;;;;;;;28.18;22.32;99414.63;4391740;32;34064;-94
2022/07/16 08:17:37;;;;;;;;;;;;;;;28.70;23.74;99409.91;4391915;32;33986;-86
2022/07/16 08:20:06;;;;;;;;;;;;;;;29.81;22.29;99393.47;4379065;32;34221;-83
2022/07/16 08:22:33;;;;;;;;;;;;;;;29.79;21.87;99384.72;4378748;32;32894;-89
2022/07/16 08:27:47;;;;;;;;;;;;;;;29.19;22.30;99392.84;4393329;32;34188;-83
2022/07/16 08:30:14;;;;;;;;;;;;;;;28.18;22.99;99398.63;4378113;32;34953;-85
2022/07/16 08:32:41;;;;;;;;;;;;;;;29.00;22.00;99391.25;4377397;32;33770;-87
2022/07/16 08:35:09;;;;;;;;;;;;;;;29.32;21.52;99393.78;4378747;32;33787;-95
2022/07/16 08:37:38;;;;;;;;;;;;;;;30.41;21.13;99385.19;4369138;32;34139;-87
2022/07/16 08:40:08;;;;;;;;;;;;;;;30.09;21.41;99400.63;4386723;32;34561;-94
2022/07/16 08:42:35;;;;;;;;;;;;;;;30.36;20.78;99402.50;4364703;32;33434;-84
2022/07/16 08:45:03;;;;;;;;;;;;;;;29.77;20.73;99394.62;4394227;32;34676;-84
2022/07/16 08:47:31;;;;;;;;;;;;;;;29.61;20.97;99396.53;4380614;32;35037;-85
2022/07/16 08:50:04;;;;;;;;;;;;;;;28.94;21.85;99398.72;4394411;32;35210;-88
2022/07/16 08:52:31;;;;;;;;;;;;;;;29.44;21.54;99386.88;4382150;32;32564;-85
2022/07/16 08:54:59;;;;;;;;;;;;;;;29.71;20.73;99389.69;4382860;32;34216;-89
2022/07/16 08:57:26;;;;;;;;;;;;;;;29.46;21.58;99391.16;4355693;32;33096;-84
2022/07/16 08:59:53;;;;;;;;;;;;;;;29.41;21.45;99397.75;4385424;32;34277;-95
2022/07/16 09:02:21;;;;;;;;;;;;;;;28.99;21.84;99397.56;4396125;32;33447;-84
2022/07/16 09:04:48;;;;;;;;;;;;;;;29.27;21.69;99395.91;4372033;32;34509;-87
2022/07/16 09:07:16;;;;;;;;;;;;;;;30.66;20.48;99387.09;4359406;32;34628;-86
2022/07/16 09:09:46;;;;;;;;;;;;;;;29.91;21.62;99388.41;4381173;32;34970;-83
2022/07/16 09:12:32;;;;;;;;;;;;;;;28.54;22.05;99383.25;4394300;32;33546;-86
2022/07/16 09:14:59;;;;;;;;;;;;;;;29.46;21.57;99383.13;4377680;32;34879;-87
2022/07/16 09:17:27;;;;;;;;;;;;;;;30.66;20.02;99386.25;4367909;32;34342;-95
2022/07/16 09:19:54;;;;;;;;;;;;;;;31.18;19.92;99385.44;4371777;32;34302;-96
2022/07/16 09:22:21;;;;;;;;;;;;;;;31.19;19.13;99376.44;4377873;32;33374;-92
2022/07/16 09:24:52;;;;;;;;;;;;;;;30.96;20.58;99375.31;4360632;32;34935;-94
2022/07/16 09:27:26;;;;;;;;;;;;;;;31.27;19.24;99372.25;4366609;32;34502;-84
2022/07/16 09:29:56;;;;;;;;;;;;;;;31.00;22.52;99374.16;4378621;32;34137;-84
2022/07/16 09:32:30;;;;;;;;;;;;;;;31.27;19.75;99369.56;4376029;32;34345;-85
2022/07/16 09:35:02;;;;;;;;;;;;;;;30.32;21.05;99359.03;4363480;32;34396;-91
2022/07/16 09:37:45;;;;;;;;;;;;;;;29.63;21.31;99359.91;4376196;32;34116;-87
2022/07/16 09:40:13;;;;;;;;;;;;;;;30.30;21.29;99377.00;4376382;32;34077;-89
2022/07/16 09:42:40;;;;;;;;;;;;;;;31.02;20.05;99365.03;4376350;32;33583;-94
2022/07/16 09:45:08;;;;;;;;;;;;;;;29.78;20.78;99370.50;4375990;32;33837;-96
2022/07/16 09:47:36;;;;;;;;;;;;;;;31.20;19.32;99367.41;4362304;32;35237;-91
2022/07/16 09:50:03;;;;;;;;;;;;;;;30.49;20.43;99364.12;4375733;32;34219;-89
2022/07/16 09:52:31;;;;;;;;;;;;;;;30.94;20.23;99359.34;4375623;32;33352;-89
2022/07/16 09:55:00;;;;;;;;;;;;;;;30.10;21.37;99358.69;4361841;32;34214;-89
2022/07/16 09:57:28;;;;;;;;;;;;;;;30.72;20.25;99367.97;4362484;32;34283;-88
2022/07/16 09:59:56;;;;;;;;;;;;;;;30.71;21.15;99360.87;4375186;32;33613;-87
2022/07/16 10:02:28;;;;;;;;;;;;;;;30.69;20.37;99361.97;4375029;32;33928;-92
2022/07/16 10:04:55;;;;;;;;;;;;;;;30.06;20.07;99356.22;4363613;32;34034;-83
2022/07/16 10:07:30;;;;;;;;;;;;;;;30.38;20.65;99357.75;4381498;32;35514;-93
2022/07/16 10:09:58;;;;;;;;;;;;;;;29.18;20.99;99359.09;4367615;32;34214;-82
2022/07/16 10:12:26;;;;;;;;;;;;;;;30.11;21.25;99349.69;4363644;32;32953;-84
2022/07/16 10:14:53;;;;;;;;;;;;;;;30.56;20.58;99353.03;4378216;32;34029;-94
2022/07/16 10:17:23;;;;;;;;;;;;;;;30.09;21.10;99344.47;4364058;32;34577;-93
2022/07/16 10:19:57;;;;;;;;;;;;;;;29.91;21.47;99342.97;4369656;32;35341;-83
2022/07/16 10:22:29;;;;;;;;;;;;;;;30.53;21.26;99346.03;4378245;32;33485;-85
2022/07/16 10:24:56;;;;;;;;;;;;;;;30.39;20.89;99333.59;4378465;32;33785;-88
2022/07/16 10:27:35;;;;;;;;;;;;;;;30.29;21.96;99330.66;4387550;32;34963;-83
2022/07/16 10:30:21;;;;;;;;;;;;;;;31.01;20.54;99322.31;4390319;32;35077;-85
2022/07/16 10:33:05;;;;;;;;;;;;;;;30.68;21.32;99320.06;4391451;32;33138;-82
2022/07/16 10:35:33;;;;;;;;;;;;;;;31.26;20.92;99324.16;4390833;32;35199;-83
2022/07/16 10:38:07;;;;;;;;;;;;;;;30.94;21.09;99312.97;4376975;32;34343;-88
2022/07/16 10:41:07;;;;;;;;;;;;;;;30.70;21.82;99319.03;4392663;32;34210;-83
2022/07/16 10:43:35;;;;;;;;;;;;;;;31.23;22.27;99319.00;4391255;32;33050;-93
2022/07/16 10:46:09;;;;;;;;;;;;;;;30.69;21.45;99308.44;4377498;32;34199;-82
2022/07/16 10:48:37;;;;;;;;;;;;;;;30.88;21.09;99300.87;4379038;32;34415;-83
2022/07/16 10:51:11;;;;;;;;;;;;;;;32.32;20.32;99303.12;4391877;32;34214;-84
2022/07/16 10:54:01;;;;;;;;;;;;;;;32.15;19.60;99305.22;4377986;32;32876;-83
2022/07/16 10:56:35;;;;;;;;;;;;;;;32.59;19.21;99297.53;4378078;32;32379;-84
2022/07/16 10:59:04;;;;;;;;;;;;;;;31.07;20.79;99300.47;4375919;32;34489;-84
2022/07/16 11:01:31;;;;;;;;;;;;;;;31.15;20.95;99302.63;4363110;32;34495;-83
2022/07/16 11:03:59;;;;;;;;;;;;;;;31.70;20.65;99298.69;4375386;32;33511;-84
2022/07/16 11:06:27;;;;;;;;;;;;;;;31.06;21.58;99300.56;4374958;32;33812;-86
2022/07/16 11:08:55;;;;;;;;;;;;;;;30.83;22.42;99286.94;4375755;32;34262;-88
2022/07/16 11:11:22;;;;;;;;;;;;;;;30.44;21.69;99282.47;4374271;32;35172;-83
2022/07/16 11:13:53;;;;;;;;;;;;;;;30.46;22.22;99286.75;4378424;32;33379;-83
2022/07/16 11:16:26;;;;;;;;;;;;;;;32.15;20.51;99286.44;4367042;32;34490;-88
2022/07/16 11:18:53;;;;;;;;;;;;;;;31.42;20.82;99289.97;4364888;32;35373;-85
2022/07/16 11:21:20;;;;;;;;;;;;;;;32.20;20.18;99280.72;4363556;32;34212;-82
2022/07/16 11:23:48;;;;;;;;;;;;;;;30.62;21.98;99288.41;4363656;32;33190;-83
2022/07/16 11:26:16;;;;;;;;;;;;;;;30.37;22.45;99282.00;4377451;32;34021;-84
2022/07/16 11:28:53;;;;;;;;;;;;;;;31.23;21.06;99290.38;4377054;32;35262;-83
2022/07/16 11:31:24;;;;;;;;;;;;;;;31.12;21.54;99284.94;4378118;32;33878;-82
2022/07/16 11:33:52;;;;;;;;;;;;;;;31.64;21.27;99291.13;4366696;32;33513;-83
2022/07/16 11:36:19;;;;;;;;;;;;;;;31.92;20.73;99293.53;4364416;32;33302;-86
2022/07/16 11:38:47;;;;;;;;;;;;;;;31.86;21.18;99291.31;4379096;32;34519;-82
2022/07/16 11:41:16;;;;;;;;;;;;;;;32.64;20.14;99281.94;4378664;32;34605;-82
2022/07/16 11:43:43;;;;;;;;;;;;;;;33.21;19.29;99286.44;4378398;32;33184;-83
2022/07/16 11:46:31;;;;;;;;;;;;;;;33.19;19.87;99291.09;4363232;32;34257;-84
2022/07/16 11:48:58;;;;;;;;;;;;;;;32.08;19.92;99295.06;4377790;32;34515;-85
2022/07/16 11:51:28;;;;;;;;;;;;;;;32.03;20.45;99297.25;4363197;32;35074;-83
2022/07/16 11:53:55;;;;;;;;;;;;;;;31.73;20.31;99282.41;4377656;32;33410;-82
2022/07/16 11:56:33;;;;;;;;;;;;;;;32.57;19.99;99275.31;4363745;32;33695;-82
2022/07/16 11:59:01;;;;;;;;;;;;;;;32.13;20.48;99279.50;4376562;32;34169;-84
2022/07/16 12:01:32;;;;;;;;;;;;;;;32.55;20.01;99285.31;4372665;32;35090;-86
2022/07/16 12:04:00;;;;;;;;;;;;;;;32.23;20.93;99277.81;4363501;32;33651;-84
2022/07/16 12:06:27;;;;;;;;;;;;;;;32.55;19.76;99288.00;4363190;32;34192;-84
2022/07/16 12:08:55;;;;;;;;;;;;;;;30.92;21.16;99286.31;4377871;32;34314;-82
2022/07/16 12:11:35;;;;;;;;;;;;;;;31.52;21.43;99290.19;4376386;32;34093;-82
2022/07/16 12:14:03;;;;;;;;;;;;;;;32.22;21.02;99282.34;4363525;32;32565;-84
2022/07/16 12:16:34;;;;;;;;;;;;;;;32.04;20.38;99274.81;4363238;32;34236;-92
2022/07/16 12:19:02;;;;;;;;;;;;;;;31.57;21.40;99274.63;4377099;32;35126;-82
2022/07/16 12:21:30;;;;;;;;;;;;;;;32.03;20.60;99278.47;4363705;32;34908;-83
2022/07/16 12:23:58;;;;;;;;;;;;;;;31.04;21.71;99279.25;4363100;32;33410;-82
2022/07/16 12:26:29;;;;;;;;;;;;;;;31.13;22.13;99270.56;4376880;32;34223;-83
2022/07/16 12:28:58;;;;;;;;;;;;;;;32.67;21.06;99265.59;4372225;32;33142;-87
2022/07/16 12:31:26;;;;;;;;;;;;;;;31.42;21.03;99268.53;4376531;32;34884;-84
2022/07/16 12:33:53;;;;;;;;;;;;;;;31.23;20.96;99281.50;4363453;32;33204;-82
2022/07/16 12:36:22;;;;;;;;;;;;;;;32.09;20.70;99278.88;4376700;32;33941;-84
2022/07/16 12:41:20;;;;;;;;;;;;;;;30.77;21.82;99258.78;4376635;32;33689;-83
2022/07/16 12:43:55;;;;;;;;;;;;;;;31.37;21.54;99259.97;4377310;32;33129;-82
2022/07/16 12:46:23;;;;;;;;;;;;;;;32.25;20.34;99243.72;4373919;32;34122;-83
2022/07/16 12:48:55;;;;;;;;;;;;;;;32.76;21.26;99243.38;4391675;32;34095;-83
2022/07/16 12:51:23;;;;;;;;;;;;;;;33.01;18.75;99254.94;4391245;32;34875;-91
2022/07/16 12:53:51;;;;;;;;;;;;;;;33.01;19.01;99247.72;4391203;32;33546;-83
2022/07/16 12:59:05;;;;;;;;;;;;;;;31.97;20.08;99256.50;4388230;32;34229;-79
2022/07/16 13:01:33;;;;;;;;;;;;;;;32.07;20.11;99267.41;4384403;32;34615;-83
2022/07/16 13:04:00;;;;;;;;;;;;;;;31.96;20.77;99253.94;4391610;32;33622;-83